sensor_id;sensor_type;location;lat;lon;timestamp;P1;durP1;ratioP1;P2;durP2;ratioP2
51836;SDS011;38941;53.254;6.600;2023-03-20T00:00:08;8.60;;;2.80;;
51836;SDS011;38941;53.254;6.600;2023-03-20T00:02:20;4.75;;;2.40;;
51836;SDS011;38941;53.254;6.600;2023-03-20T00:04:22;6.20;;;2.42;;
51836;SDS011;38941;53.254;6.600;2023-03-20T00:06:25;8.43;;;2.90;;
51836;SDS011;38941;53.254;6.600;2023-03-20T00:08:30;8.80;;;2.58;;
51836;SDS011;38941;53.254;6.600;2023-03-20T00:10:33;5.35;;;2.35;;
51836;SDS011;38941;53.254;6.600;2023-03-20T00:12:39;8.10;;;2.55;;
51836;SDS011;38941;53.254;6.600;2023-03-20T00:14:40;8.23;;;2.88;;
51836;SDS011;38941;53.254;6.600;2023-03-20T00:16:42;8.05;;;2.70;;
51836;SDS011;38941;53.254;6.600;2023-03-20T00:18:43;6.63;;;3.13;;
51836;SDS011;38941;53.254;6.600;2023-03-20T00:20:45;7.85;;;2.97;;
51836;SDS011;38941;53.254;6.600;2023-03-20T00:22:46;8.77;;;2.83;;
51836;SDS011;38941;53.254;6.600;2023-03-20T00:24:47;8.35;;;3.38;;
51836;SDS011;38941;53.254;6.600;2023-03-20T00:26:48;8.27;;;3.65;;
51836;SDS011;38941;53.254;6.600;2023-03-20T00:28:50;8.30;;;3.30;;
51836;SDS011;38941;53.254;6.600;2023-03-20T00:30:51;5.60;;;3.25;;
51836;SDS011;38941;53.254;6.600;2023-03-20T00:32:52;5.85;;;2.90;;
51836;SDS011;38941;53.254;6.600;2023-03-20T00:34:55;5.95;;;2.90;;
51836;SDS011;38941;53.254;6.600;2023-03-20T00:36:56;8.77;;;2.92;;
51836;SDS011;38941;53.254;6.600;2023-03-20T00:38:57;6.60;;;2.75;;
51836;SDS011;38941;53.254;6.600;2023-03-20T00:40:58;6.32;;;2.70;;
51836;SDS011;38941;53.254;6.600;2023-03-20T00:43:02;4.88;;;2.53;;
51836;SDS011;38941;53.254;6.600;2023-03-20T00:45:04;6.88;;;2.97;;
51836;SDS011;38941;53.254;6.600;2023-03-20T00:47:12;6.43;;;2.75;;
51836;SDS011;38941;53.254;6.600;2023-03-20T00:49:19;7.53;;;2.85;;
51836;SDS011;38941;53.254;6.600;2023-03-20T00:51:22;6.22;;;2.85;;
51836;SDS011;38941;53.254;6.600;2023-03-20T00:53:23;6.57;;;2.80;;
51836;SDS011;38941;53.254;6.600;2023-03-20T00:55:24;6.78;;;2.97;;
51836;SDS011;38941;53.254;6.600;2023-03-20T00:57:29;7.15;;;2.30;;
51836;SDS011;38941;53.254;6.600;2023-03-20T00:59:58;5.75;;;2.75;;
51836;SDS011;38941;53.254;6.600;2023-03-20T01:02:07;5.53;;;3.10;;
51836;SDS011;38941;53.254;6.600;2023-03-20T01:04:11;6.90;;;3.05;;
51836;SDS011;38941;53.254;6.600;2023-03-20T01:06:13;6.65;;;2.75;;
51836;SDS011;38941;53.254;6.600;2023-03-20T01:08:22;5.15;;;2.70;;
51836;SDS011;38941;53.254;6.600;2023-03-20T01:10:25;6.90;;;2.67;;
51836;SDS011;38941;53.254;6.600;2023-03-20T01:12:29;5.25;;;2.40;;
51836;SDS011;38941;53.254;6.600;2023-03-20T01:14:30;10.68;;;2.83;;
51836;SDS011;38941;53.254;6.600;2023-03-20T01:16:31;6.88;;;2.55;;
51836;SDS011;38941;53.254;6.600;2023-03-20T01:18:31;6.78;;;3.03;;
51836;SDS011;38941;53.254;6.600;2023-03-20T01:20:33;7.80;;;2.30;;
51836;SDS011;38941;53.254;6.600;2023-03-20T01:22:33;4.93;;;2.40;;
51836;SDS011;38941;53.254;6.600;2023-03-20T01:24:34;5.93;;;2.80;;
51836;SDS011;38941;53.254;6.600;2023-03-20T01:26:36;11.30;;;3.67;;
51836;SDS011;38941;53.254;6.600;2023-03-20T01:28:42;5.90;;;3.03;;
51836;SDS011;38941;53.254;6.600;2023-03-20T01:30:43;12.60;;;3.55;;
51836;SDS011;38941;53.254;6.600;2023-03-20T01:32:44;6.63;;;3.10;;
51836;SDS011;38941;53.254;6.600;2023-03-20T01:34:46;5.97;;;2.90;;
51836;SDS011;38941;53.254;6.600;2023-03-20T01:36:48;8.32;;;2.72;;
51836;SDS011;38941;53.254;6.600;2023-03-20T01:38:54;11.82;;;2.47;;
51836;SDS011;38941;53.254;6.600;2023-03-20T01:43:11;7.35;;;3.10;;
51836;SDS011;38941;53.254;6.600;2023-03-20T01:45:15;7.50;;;3.30;;
51836;SDS011;38941;53.254;6.600;2023-03-20T01:47:21;6.07;;;2.78;;
51836;SDS011;38941;53.254;6.600;2023-03-20T01:51:28;9.43;;;3.03;;
51836;SDS011;38941;53.254;6.600;2023-03-20T01:53:33;7.85;;;3.10;;
51836;SDS011;38941;53.254;6.600;2023-03-20T01:55:34;6.57;;;3.03;;
51836;SDS011;38941;53.254;6.600;2023-03-20T01:57:35;10.52;;;3.53;;
51836;SDS011;38941;53.254;6.600;2023-03-20T01:59:40;6.43;;;2.78;;
51836;SDS011;38941;53.254;6.600;2023-03-20T02:01:49;8.68;;;3.85;;
51836;SDS011;38941;53.254;6.600;2023-03-20T02:03:50;9.02;;;3.10;;
51836;SDS011;38941;53.254;6.600;2023-03-20T02:05:51;9.88;;;3.70;;
51836;SDS011;38941;53.254;6.600;2023-03-20T02:08:06;10.07;;;3.38;;
51836;SDS011;38941;53.254;6.600;2023-03-20T02:10:13;10.75;;;3.85;;
51836;SDS011;38941;53.254;6.600;2023-03-20T02:12:16;10.93;;;3.22;;
51836;SDS011;38941;53.254;6.600;2023-03-20T02:14:19;8.50;;;3.95;;
51836;SDS011;38941;53.254;6.600;2023-03-20T02:16:21;7.45;;;3.30;;
51836;SDS011;38941;53.254;6.600;2023-03-20T02:18:22;9.60;;;3.70;;
51836;SDS011;38941;53.254;6.600;2023-03-20T02:22:53;9.73;;;4.25;;
51836;SDS011;38941;53.254;6.600;2023-03-20T02:42:23;12.60;;;3.90;;
51836;SDS011;38941;53.254;6.600;2023-03-20T02:45:11;11.80;;;4.55;;
51836;SDS011;38941;53.254;6.600;2023-03-20T02:47:24;13.93;;;4.20;;
51836;SDS011;38941;53.254;6.600;2023-03-20T02:56:44;15.20;;;4.18;;
51836;SDS011;38941;53.254;6.600;2023-03-20T03:02:19;17.20;;;4.80;;
51836;SDS011;38941;53.254;6.600;2023-03-20T03:04:16;13.13;;;3.97;;
51836;SDS011;38941;53.254;6.600;2023-03-20T03:06:25;9.18;;;3.78;;
51836;SDS011;38941;53.254;6.600;2023-03-20T03:08:30;9.60;;;4.18;;
51836;SDS011;38941;53.254;6.600;2023-03-20T03:10:37;10.80;;;4.55;;
51836;SDS011;38941;53.254;6.600;2023-03-20T03:12:43;10.63;;;4.70;;
51836;SDS011;38941;53.254;6.600;2023-03-20T03:14:52;11.95;;;4.13;;
51836;SDS011;38941;53.254;6.600;2023-03-20T03:16:56;17.58;;;5.18;;
51836;SDS011;38941;53.254;6.600;2023-03-20T03:19:07;14.27;;;4.55;;
51836;SDS011;38941;53.254;6.600;2023-03-20T03:21:15;15.75;;;4.57;;
51836;SDS011;38941;53.254;6.600;2023-03-20T03:23:24;13.27;;;4.53;;
51836;SDS011;38941;53.254;6.600;2023-03-20T03:25:35;12.98;;;5.03;;
51836;SDS011;38941;53.254;6.600;2023-03-20T03:29:43;11.00;;;4.60;;
51836;SDS011;38941;53.254;6.600;2023-03-20T03:31:50;18.33;;;4.95;;
51836;SDS011;38941;53.254;6.600;2023-03-20T03:33:52;11.93;;;4.55;;
51836;SDS011;38941;53.254;6.600;2023-03-20T03:36:01;14.68;;;5.55;;
51836;SDS011;38941;53.254;6.600;2023-03-20T03:38:17;12.15;;;4.43;;
51836;SDS011;38941;53.254;6.600;2023-03-20T03:42:38;12.70;;;5.50;;
51836;SDS011;38941;53.254;6.600;2023-03-20T03:47:20;16.67;;;4.65;;
51836;SDS011;38941;53.254;6.600;2023-03-20T03:49:28;12.27;;;4.40;;
51836;SDS011;38941;53.254;6.600;2023-03-20T03:51:32;10.85;;;4.30;;
51836;SDS011;38941;53.254;6.600;2023-03-20T03:53:39;17.23;;;5.45;;
51836;SDS011;38941;53.254;6.600;2023-03-20T03:55:49;13.88;;;4.68;;
51836;SDS011;38941;53.254;6.600;2023-03-20T03:58:15;12.25;;;4.32;;
51836;SDS011;38941;53.254;6.600;2023-03-20T04:00:19;14.57;;;5.45;;
51836;SDS011;38941;53.254;6.600;2023-03-20T04:02:24;12.52;;;5.22;;
51836;SDS011;38941;53.254;6.600;2023-03-20T04:04:26;10.98;;;4.38;;
51836;SDS011;38941;53.254;6.600;2023-03-20T04:06:29;12.65;;;4.70;;
51836;SDS011;38941;53.254;6.600;2023-03-20T04:08:32;11.93;;;4.57;;
51836;SDS011;38941;53.254;6.600;2023-03-20T04:10:33;12.00;;;4.35;;
51836;SDS011;38941;53.254;6.600;2023-03-20T04:12:38;17.05;;;5.25;;
51836;SDS011;38941;53.254;6.600;2023-03-20T04:14:42;12.65;;;4.70;;
51836;SDS011;38941;53.254;6.600;2023-03-20T04:16:42;15.13;;;5.57;;
51836;SDS011;38941;53.254;6.600;2023-03-20T04:18:43;12.45;;;5.30;;
51836;SDS011;38941;53.254;6.600;2023-03-20T04:20:45;9.70;;;4.20;;
51836;SDS011;38941;53.254;6.600;2023-03-20T04:22:46;11.20;;;4.65;;
51836;SDS011;38941;53.254;6.600;2023-03-20T04:24:48;14.05;;;5.07;;
51836;SDS011;38941;53.254;6.600;2023-03-20T04:26:48;10.25;;;4.50;;
51836;SDS011;38941;53.254;6.600;2023-03-20T04:28:49;12.45;;;4.43;;
51836;SDS011;38941;53.254;6.600;2023-03-20T04:30:54;11.82;;;4.88;;
51836;SDS011;38941;53.254;6.600;2023-03-20T04:32:57;8.38;;;4.10;;
51836;SDS011;38941;53.254;6.600;2023-03-20T04:34:57;13.25;;;4.68;;
51836;SDS011;38941;53.254;6.600;2023-03-20T04:36:58;13.05;;;4.32;;
51836;SDS011;38941;53.254;6.600;2023-03-20T04:39:00;13.18;;;4.55;;
51836;SDS011;38941;53.254;6.600;2023-03-20T04:41:01;8.60;;;3.90;;
51836;SDS011;38941;53.254;6.600;2023-03-20T04:43:02;12.93;;;3.67;;
51836;SDS011;38941;53.254;6.600;2023-03-20T04:45:03;10.77;;;4.13;;
51836;SDS011;38941;53.254;6.600;2023-03-20T04:47:06;11.77;;;4.88;;
51836;SDS011;38941;53.254;6.600;2023-03-20T04:49:07;9.30;;;3.90;;
51836;SDS011;38941;53.254;6.600;2023-03-20T04:51:08;10.38;;;4.60;;
51836;SDS011;38941;53.254;6.600;2023-03-20T04:53:09;8.93;;;4.30;;
51836;SDS011;38941;53.254;6.600;2023-03-20T04:55:09;15.90;;;4.85;;
51836;SDS011;38941;53.254;6.600;2023-03-20T04:57:10;16.80;;;5.05;;
51836;SDS011;38941;53.254;6.600;2023-03-20T04:59:11;11.45;;;4.75;;
51836;SDS011;38941;53.254;6.600;2023-03-20T05:01:12;12.27;;;4.68;;
51836;SDS011;38941;53.254;6.600;2023-03-20T05:03:12;12.40;;;4.95;;
51836;SDS011;38941;53.254;6.600;2023-03-20T05:05:14;10.32;;;5.30;;
51836;SDS011;38941;53.254;6.600;2023-03-20T05:07:15;13.88;;;5.28;;
51836;SDS011;38941;53.254;6.600;2023-03-20T05:09:16;10.43;;;4.35;;
51836;SDS011;38941;53.254;6.600;2023-03-20T05:11:16;9.68;;;4.68;;
51836;SDS011;38941;53.254;6.600;2023-03-20T05:13:17;13.13;;;5.30;;
51836;SDS011;38941;53.254;6.600;2023-03-20T05:15:18;15.32;;;6.32;;
51836;SDS011;38941;53.254;6.600;2023-03-20T05:17:20;11.35;;;4.85;;
51836;SDS011;38941;53.254;6.600;2023-03-20T05:19:22;9.70;;;4.90;;
51836;SDS011;38941;53.254;6.600;2023-03-20T05:21:23;14.55;;;5.32;;
51836;SDS011;38941;53.254;6.600;2023-03-20T05:23:23;16.70;;;5.60;;
51836;SDS011;38941;53.254;6.600;2023-03-20T05:25:24;15.10;;;5.88;;
51836;SDS011;38941;53.254;6.600;2023-03-20T05:27:25;13.25;;;4.80;;
51836;SDS011;38941;53.254;6.600;2023-03-20T05:29:26;13.55;;;5.53;;
51836;SDS011;38941;53.254;6.600;2023-03-20T05:31:27;12.65;;;4.78;;
51836;SDS011;38941;53.254;6.600;2023-03-20T05:33:27;12.73;;;6.03;;
51836;SDS011;38941;53.254;6.600;2023-03-20T05:35:29;15.90;;;5.40;;
51836;SDS011;38941;53.254;6.600;2023-03-20T05:37:30;14.20;;;5.82;;
51836;SDS011;38941;53.254;6.600;2023-03-20T05:39:31;13.70;;;5.28;;
51836;SDS011;38941;53.254;6.600;2023-03-20T05:41:31;13.70;;;5.15;;
51836;SDS011;38941;53.254;6.600;2023-03-20T05:43:32;14.75;;;6.03;;
51836;SDS011;38941;53.254;6.600;2023-03-20T05:45:34;14.25;;;5.88;;
51836;SDS011;38941;53.254;6.600;2023-03-20T05:47:34;14.65;;;5.60;;
51836;SDS011;38941;53.254;6.600;2023-03-20T05:49:35;13.13;;;5.80;;
51836;SDS011;38941;53.254;6.600;2023-03-20T05:51:36;12.80;;;5.40;;
51836;SDS011;38941;53.254;6.600;2023-03-20T05:53:37;17.95;;;6.43;;
51836;SDS011;38941;53.254;6.600;2023-03-20T05:55:38;12.48;;;4.90;;
51836;SDS011;38941;53.254;6.600;2023-03-20T05:57:40;16.17;;;5.30;;
51836;SDS011;38941;53.254;6.600;2023-03-20T05:59:41;15.13;;;4.97;;
51836;SDS011;38941;53.254;6.600;2023-03-20T06:01:42;12.48;;;4.93;;
51836;SDS011;38941;53.254;6.600;2023-03-20T06:03:44;8.32;;;4.55;;
51836;SDS011;38941;53.254;6.600;2023-03-20T06:05:45;15.93;;;5.38;;
51836;SDS011;38941;53.254;6.600;2023-03-20T06:07:45;12.80;;;5.10;;
51836;SDS011;38941;53.254;6.600;2023-03-20T06:09:47;10.73;;;4.13;;
51836;SDS011;38941;53.254;6.600;2023-03-20T06:11:48;13.57;;;5.30;;
51836;SDS011;38941;53.254;6.600;2023-03-20T06:13:48;14.82;;;5.95;;
51836;SDS011;38941;53.254;6.600;2023-03-20T06:15:53;13.70;;;4.78;;
51836;SDS011;38941;53.254;6.600;2023-03-20T06:17:54;11.60;;;4.97;;
51836;SDS011;38941;53.254;6.600;2023-03-20T06:19:55;11.48;;;4.55;;
51836;SDS011;38941;53.254;6.600;2023-03-20T06:21:56;11.45;;;4.38;;
51836;SDS011;38941;53.254;6.600;2023-03-20T06:23:57;10.32;;;4.47;;
51836;SDS011;38941;53.254;6.600;2023-03-20T06:25:59;15.43;;;5.38;;
51836;SDS011;38941;53.254;6.600;2023-03-20T06:27:59;10.13;;;4.82;;
51836;SDS011;38941;53.254;6.600;2023-03-20T06:30:00;15.68;;;5.28;;
51836;SDS011;38941;53.254;6.600;2023-03-20T06:32:01;12.27;;;5.13;;
51836;SDS011;38941;53.254;6.600;2023-03-20T06:34:02;12.65;;;4.38;;
51836;SDS011;38941;53.254;6.600;2023-03-20T06:36:03;16.48;;;6.05;;
51836;SDS011;38941;53.254;6.600;2023-03-20T06:38:04;16.13;;;5.93;;
51836;SDS011;38941;53.254;6.600;2023-03-20T06:40:05;13.15;;;5.93;;
51836;SDS011;38941;53.254;6.600;2023-03-20T06:42:07;14.07;;;5.63;;
51836;SDS011;38941;53.254;6.600;2023-03-20T06:44:08;11.27;;;5.47;;
51836;SDS011;38941;53.254;6.600;2023-03-20T06:46:09;11.10;;;4.88;;
51836;SDS011;38941;53.254;6.600;2023-03-20T06:48:09;15.45;;;5.53;;
51836;SDS011;38941;53.254;6.600;2023-03-20T06:50:12;14.73;;;5.50;;
51836;SDS011;38941;53.254;6.600;2023-03-20T06:52:15;16.52;;;5.03;;
51836;SDS011;38941;53.254;6.600;2023-03-20T06:54:18;11.98;;;5.40;;
51836;SDS011;38941;53.254;6.600;2023-03-20T06:56:19;15.88;;;5.60;;
51836;SDS011;38941;53.254;6.600;2023-03-20T06:58:20;14.52;;;5.35;;
51836;SDS011;38941;53.254;6.600;2023-03-20T07:00:20;17.02;;;5.25;;
51836;SDS011;38941;53.254;6.600;2023-03-20T07:02:21;13.45;;;5.80;;
51836;SDS011;38941;53.254;6.600;2023-03-20T07:04:24;17.30;;;5.95;;
51836;SDS011;38941;53.254;6.600;2023-03-20T07:06:25;14.70;;;5.43;;
51836;SDS011;38941;53.254;6.600;2023-03-20T07:08:26;12.57;;;5.50;;
51836;SDS011;38941;53.254;6.600;2023-03-20T07:10:27;12.02;;;4.68;;
51836;SDS011;38941;53.254;6.600;2023-03-20T07:12:28;17.73;;;5.15;;
51836;SDS011;38941;53.254;6.600;2023-03-20T07:14:29;18.10;;;6.93;;
51836;SDS011;38941;53.254;6.600;2023-03-20T07:16:30;17.15;;;5.90;;
51836;SDS011;38941;53.254;6.600;2023-03-20T07:18:31;14.23;;;5.55;;
51836;SDS011;38941;53.254;6.600;2023-03-20T07:20:33;14.60;;;6.50;;
51836;SDS011;38941;53.254;6.600;2023-03-20T07:22:33;20.50;;;5.65;;
51836;SDS011;38941;53.254;6.600;2023-03-20T07:24:34;17.55;;;4.30;;
51836;SDS011;38941;53.254;6.600;2023-03-20T07:26:35;15.52;;;5.47;;
51836;SDS011;38941;53.254;6.600;2023-03-20T07:28:36;12.77;;;5.35;;
51836;SDS011;38941;53.254;6.600;2023-03-20T07:30:36;15.43;;;5.60;;
51836;SDS011;38941;53.254;6.600;2023-03-20T07:32:38;14.88;;;5.53;;
51836;SDS011;38941;53.254;6.600;2023-03-20T07:34:39;18.70;;;6.50;;
51836;SDS011;38941;53.254;6.600;2023-03-20T07:36:40;14.68;;;6.25;;
51836;SDS011;38941;53.254;6.600;2023-03-20T07:38:41;12.07;;;5.75;;
51836;SDS011;38941;53.254;6.600;2023-03-20T07:40:42;13.18;;;6.38;;
51836;SDS011;38941;53.254;6.600;2023-03-20T07:42:43;13.00;;;6.10;;
51836;SDS011;38941;53.254;6.600;2023-03-20T07:44:45;14.90;;;6.10;;
51836;SDS011;38941;53.254;6.600;2023-03-20T07:46:46;17.33;;;6.38;;
51836;SDS011;38941;53.254;6.600;2023-03-20T07:48:48;14.93;;;6.32;;
51836;SDS011;38941;53.254;6.600;2023-03-20T07:50:49;15.02;;;6.30;;
51836;SDS011;38941;53.254;6.600;2023-03-20T07:52:50;13.75;;;6.97;;
51836;SDS011;38941;53.254;6.600;2023-03-20T07:54:51;15.68;;;6.18;;
51836;SDS011;38941;53.254;6.600;2023-03-20T07:56:52;17.08;;;5.90;;
51836;SDS011;38941;53.254;6.600;2023-03-20T07:58:53;10.55;;;5.28;;
51836;SDS011;38941;53.254;6.600;2023-03-20T08:00:55;14.75;;;5.65;;
51836;SDS011;38941;53.254;6.600;2023-03-20T08:02:57;14.73;;;6.60;;
51836;SDS011;38941;53.254;6.600;2023-03-20T08:04:58;12.43;;;5.53;;
51836;SDS011;38941;53.254;6.600;2023-03-20T08:06:58;14.98;;;5.95;;
51836;SDS011;38941;53.254;6.600;2023-03-20T08:08:59;19.73;;;6.57;;
51836;SDS011;38941;53.254;6.600;2023-03-20T08:11:00;16.33;;;5.97;;
51836;SDS011;38941;53.254;6.600;2023-03-20T08:13:01;17.40;;;6.47;;
51836;SDS011;38941;53.254;6.600;2023-03-20T08:15:02;13.82;;;6.43;;
51836;SDS011;38941;53.254;6.600;2023-03-20T08:17:03;16.67;;;6.80;;
51836;SDS011;38941;53.254;6.600;2023-03-20T08:19:04;16.92;;;5.95;;
51836;SDS011;38941;53.254;6.600;2023-03-20T08:21:05;15.70;;;5.72;;
51836;SDS011;38941;53.254;6.600;2023-03-20T08:23:06;15.73;;;6.30;;
51836;SDS011;38941;53.254;6.600;2023-03-20T08:25:07;12.52;;;5.88;;
51836;SDS011;38941;53.254;6.600;2023-03-20T08:27:08;14.95;;;5.82;;
51836;SDS011;38941;53.254;6.600;2023-03-20T08:29:09;14.57;;;5.60;;
51836;SDS011;38941;53.254;6.600;2023-03-20T08:31:11;16.98;;;6.53;;
51836;SDS011;38941;53.254;6.600;2023-03-20T08:33:13;12.27;;;6.30;;
51836;SDS011;38941;53.254;6.600;2023-03-20T08:35:16;16.38;;;6.20;;
51836;SDS011;38941;53.254;6.600;2023-03-20T08:37:16;13.85;;;6.25;;
51836;SDS011;38941;53.254;6.600;2023-03-20T08:39:17;17.33;;;7.00;;
51836;SDS011;38941;53.254;6.600;2023-03-20T08:41:18;13.85;;;6.05;;
51836;SDS011;38941;53.254;6.600;2023-03-20T08:43:19;18.75;;;6.82;;
51836;SDS011;38941;53.254;6.600;2023-03-20T08:45:20;14.75;;;6.38;;
51836;SDS011;38941;53.254;6.600;2023-03-20T08:47:23;15.77;;;6.32;;
51836;SDS011;38941;53.254;6.600;2023-03-20T08:49:25;22.45;;;6.85;;
51836;SDS011;38941;53.254;6.600;2023-03-20T08:51:26;15.10;;;5.80;;
51836;SDS011;38941;53.254;6.600;2023-03-20T08:53:27;12.65;;;5.97;;
51836;SDS011;38941;53.254;6.600;2023-03-20T08:55:28;14.35;;;5.97;;
51836;SDS011;38941;53.254;6.600;2023-03-20T08:57:31;12.43;;;5.70;;
51836;SDS011;38941;53.254;6.600;2023-03-20T08:59:32;14.90;;;6.20;;
51836;SDS011;38941;53.254;6.600;2023-03-20T09:01:32;13.60;;;6.30;;
51836;SDS011;38941;53.254;6.600;2023-03-20T09:03:33;20.02;;;5.93;;
51836;SDS011;38941;53.254;6.600;2023-03-20T09:05:35;14.60;;;6.82;;
51836;SDS011;38941;53.254;6.600;2023-03-20T09:07:36;16.67;;;5.85;;
51836;SDS011;38941;53.254;6.600;2023-03-20T09:09:37;14.88;;;6.30;;
51836;SDS011;38941;53.254;6.600;2023-03-20T09:11:38;13.57;;;6.32;;
51836;SDS011;38941;53.254;6.600;2023-03-20T09:13:39;13.70;;;5.50;;
51836;SDS011;38941;53.254;6.600;2023-03-20T09:15:40;16.10;;;5.53;;
51836;SDS011;38941;53.254;6.600;2023-03-20T09:17:41;15.48;;;6.40;;
51836;SDS011;38941;53.254;6.600;2023-03-20T09:19:41;12.23;;;5.55;;
51836;SDS011;38941;53.254;6.600;2023-03-20T09:21:44;12.95;;;5.45;;
51836;SDS011;38941;53.254;6.600;2023-03-20T09:23:45;13.70;;;5.57;;
51836;SDS011;38941;53.254;6.600;2023-03-20T09:25:46;14.32;;;5.53;;
51836;SDS011;38941;53.254;6.600;2023-03-20T09:27:50;11.35;;;5.28;;
51836;SDS011;38941;53.254;6.600;2023-03-20T09:29:55;17.02;;;6.30;;
51836;SDS011;38941;53.254;6.600;2023-03-20T09:31:56;15.18;;;5.78;;
51836;SDS011;38941;53.254;6.600;2023-03-20T09:33:57;17.98;;;5.47;;
51836;SDS011;38941;53.254;6.600;2023-03-20T09:35:58;12.73;;;5.53;;
51836;SDS011;38941;53.254;6.600;2023-03-20T09:37:59;15.20;;;5.85;;
51836;SDS011;38941;53.254;6.600;2023-03-20T09:40:00;13.07;;;5.00;;
51836;SDS011;38941;53.254;6.600;2023-03-20T09:42:05;14.57;;;6.10;;
51836;SDS011;38941;53.254;6.600;2023-03-20T09:44:22;12.23;;;5.18;;
51836;SDS011;38941;53.254;6.600;2023-03-20T09:53:54;16.70;;;5.65;;
51836;SDS011;38941;53.254;6.600;2023-03-20T09:55:58;19.45;;;5.43;;
51836;SDS011;38941;53.254;6.600;2023-03-20T09:58:19;13.65;;;5.95;;
51836;SDS011;38941;53.254;6.600;2023-03-20T10:00:27;15.85;;;4.95;;
51836;SDS011;38941;53.254;6.600;2023-03-20T10:04:36;15.07;;;5.55;;
51836;SDS011;38941;53.254;6.600;2023-03-20T10:06:38;11.50;;;4.80;;
51836;SDS011;38941;53.254;6.600;2023-03-20T10:08:39;15.25;;;5.63;;
51836;SDS011;38941;53.254;6.600;2023-03-20T10:15:42;13.63;;;4.80;;
51836;SDS011;38941;53.254;6.600;2023-03-20T10:22:57;11.68;;;5.43;;
51836;SDS011;38941;53.254;6.600;2023-03-20T10:27:29;14.20;;;6.00;;
51836;SDS011;38941;53.254;6.600;2023-03-20T10:29:43;15.88;;;6.00;;
51836;SDS011;38941;53.254;6.600;2023-03-20T10:34:33;13.68;;;5.10;;
51836;SDS011;38941;53.254;6.600;2023-03-20T10:41:38;13.25;;;6.10;;
51836;SDS011;38941;53.254;6.600;2023-03-20T10:43:47;13.38;;;5.75;;
51836;SDS011;38941;53.254;6.600;2023-03-20T10:45:52;11.57;;;5.68;;
51836;SDS011;38941;53.254;6.600;2023-03-20T10:47:59;12.95;;;5.80;;
51836;SDS011;38941;53.254;6.600;2023-03-20T10:50:04;13.15;;;5.65;;
51836;SDS011;38941;53.254;6.600;2023-03-20T10:52:15;11.23;;;5.35;;
51836;SDS011;38941;53.254;6.600;2023-03-20T10:54:25;13.02;;;6.03;;
51836;SDS011;38941;53.254;6.600;2023-03-20T10:56:35;17.40;;;6.15;;
51836;SDS011;38941;53.254;6.600;2023-03-20T11:00:40;12.65;;;5.50;;
51836;SDS011;38941;53.254;6.600;2023-03-20T11:02:42;12.63;;;4.80;;
51836;SDS011;38941;53.254;6.600;2023-03-20T11:04:43;13.23;;;5.10;;
51836;SDS011;38941;53.254;6.600;2023-03-20T11:06:52;13.35;;;5.70;;
51836;SDS011;38941;53.254;6.600;2023-03-20T11:09:15;10.68;;;5.07;;
51836;SDS011;38941;53.254;6.600;2023-03-20T11:11:26;8.40;;;4.80;;
51836;SDS011;38941;53.254;6.600;2023-03-20T11:13:43;13.18;;;5.35;;
51836;SDS011;38941;53.254;6.600;2023-03-20T11:15:44;11.68;;;4.55;;
51836;SDS011;38941;53.254;6.600;2023-03-20T11:18:09;11.60;;;5.38;;
51836;SDS011;38941;53.254;6.600;2023-03-20T11:20:13;21.77;;;6.55;;
51836;SDS011;38941;53.254;6.600;2023-03-20T11:22:25;12.05;;;4.88;;
51836;SDS011;38941;53.254;6.600;2023-03-20T11:24:43;12.75;;;4.85;;
51836;SDS011;38941;53.254;6.600;2023-03-20T11:26:46;11.30;;;4.60;;
51836;SDS011;38941;53.254;6.600;2023-03-20T11:28:54;12.10;;;5.32;;
51836;SDS011;38941;53.254;6.600;2023-03-20T11:31:01;16.35;;;5.43;;
51836;SDS011;38941;53.254;6.600;2023-03-20T11:33:02;13.05;;;4.43;;
51836;SDS011;38941;53.254;6.600;2023-03-20T11:35:13;12.77;;;5.75;;
51836;SDS011;38941;53.254;6.600;2023-03-20T11:37:27;10.40;;;4.35;;
51836;SDS011;38941;53.254;6.600;2023-03-20T11:39:33;15.93;;;5.47;;
51836;SDS011;38941;53.254;6.600;2023-03-20T11:41:40;14.32;;;5.85;;
51836;SDS011;38941;53.254;6.600;2023-03-20T11:43:46;9.73;;;4.28;;
51836;SDS011;38941;53.254;6.600;2023-03-20T11:45:48;11.43;;;4.85;;
51836;SDS011;38941;53.254;6.600;2023-03-20T11:47:54;14.70;;;4.70;;
51836;SDS011;38941;53.254;6.600;2023-03-20T11:49:57;9.68;;;4.60;;
51836;SDS011;38941;53.254;6.600;2023-03-20T11:52:10;12.45;;;4.00;;
51836;SDS011;38941;53.254;6.600;2023-03-20T11:54:17;9.50;;;4.07;;
51836;SDS011;38941;53.254;6.600;2023-03-20T11:56:22;12.18;;;3.85;;
51836;SDS011;38941;53.254;6.600;2023-03-20T11:58:25;10.48;;;3.97;;
51836;SDS011;38941;53.254;6.600;2023-03-20T12:00:33;10.50;;;4.00;;
51836;SDS011;38941;53.254;6.600;2023-03-20T12:02:36;17.45;;;5.00;;
51836;SDS011;38941;53.254;6.600;2023-03-20T12:04:40;12.02;;;4.38;;
51836;SDS011;38941;53.254;6.600;2023-03-20T12:06:43;8.88;;;3.63;;
51836;SDS011;38941;53.254;6.600;2023-03-20T12:08:59;6.78;;;3.38;;
51836;SDS011;38941;53.254;6.600;2023-03-20T12:13:50;9.68;;;3.20;;
51836;SDS011;38941;53.254;6.600;2023-03-20T12:15:57;15.15;;;4.85;;
51836;SDS011;38941;53.254;6.600;2023-03-20T12:20:33;7.43;;;3.30;;
51836;SDS011;38941;53.254;6.600;2023-03-20T12:22:46;15.15;;;4.65;;
51836;SDS011;38941;53.254;6.600;2023-03-20T12:27:26;10.77;;;3.10;;
51836;SDS011;38941;53.254;6.600;2023-03-20T12:29:36;7.85;;;3.08;;
51836;SDS011;38941;53.254;6.600;2023-03-20T12:31:56;8.90;;;3.72;;
51836;SDS011;38941;53.254;6.600;2023-03-20T12:34:14;13.88;;;2.92;;
51836;SDS011;38941;53.254;6.600;2023-03-20T12:36:25;3.38;;;2.33;;
51836;SDS011;38941;53.254;6.600;2023-03-20T12:40:38;10.32;;;3.08;;
51836;SDS011;38941;53.254;6.600;2023-03-20T12:45:18;3.53;;;1.90;;
51836;SDS011;38941;53.254;6.600;2023-03-20T12:49:56;8.00;;;2.63;;
51836;SDS011;38941;53.254;6.600;2023-03-20T13:01:29;8.98;;;2.53;;
51836;SDS011;38941;53.254;6.600;2023-03-20T13:10:36;11.52;;;3.42;;
51836;SDS011;38941;53.254;6.600;2023-03-20T13:24:43;4.38;;;2.92;;
51836;SDS011;38941;53.254;6.600;2023-03-20T13:29:03;5.85;;;2.85;;
51836;SDS011;38941;53.254;6.600;2023-03-20T13:31:19;11.80;;;2.95;;
51836;SDS011;38941;53.254;6.600;2023-03-20T13:38:07;8.57;;;3.10;;
51836;SDS011;38941;53.254;6.600;2023-03-20T13:40:20;6.90;;;3.10;;
51836;SDS011;38941;53.254;6.600;2023-03-20T13:42:31;6.95;;;2.78;;
51836;SDS011;38941;53.254;6.600;2023-03-20T13:44:52;3.92;;;3.20;;
51836;SDS011;38941;53.254;6.600;2023-03-20T13:47:04;7.53;;;3.13;;
51836;SDS011;38941;53.254;6.600;2023-03-20T13:49:29;8.98;;;4.13;;
51836;SDS011;38941;53.254;6.600;2023-03-20T13:51:47;5.10;;;3.25;;
51836;SDS011;38941;53.254;6.600;2023-03-20T13:56:09;6.05;;;3.30;;
51836;SDS011;38941;53.254;6.600;2023-03-20T13:58:41;7.05;;;3.78;;
51836;SDS011;38941;53.254;6.600;2023-03-20T14:00:55;6.15;;;3.10;;
51836;SDS011;38941;53.254;6.600;2023-03-20T14:03:17;6.63;;;4.38;;
51836;SDS011;38941;53.254;6.600;2023-03-20T14:05:19;6.63;;;3.40;;
51836;SDS011;38941;53.254;6.600;2023-03-20T14:07:26;7.65;;;3.53;;
51836;SDS011;38941;53.254;6.600;2023-03-20T14:09:31;7.88;;;3.80;;
51836;SDS011;38941;53.254;6.600;2023-03-20T14:11:34;5.22;;;3.60;;
51836;SDS011;38941;53.254;6.600;2023-03-20T14:13:36;5.78;;;3.67;;
51836;SDS011;38941;53.254;6.600;2023-03-20T14:15:39;6.72;;;3.88;;
51836;SDS011;38941;53.254;6.600;2023-03-20T14:17:47;7.05;;;3.45;;
51836;SDS011;38941;53.254;6.600;2023-03-20T14:19:50;6.63;;;4.03;;
51836;SDS011;38941;53.254;6.600;2023-03-20T14:21:55;5.72;;;3.88;;
51836;SDS011;38941;53.254;6.600;2023-03-20T14:23:59;6.47;;;3.70;;
51836;SDS011;38941;53.254;6.600;2023-03-20T14:26:09;6.15;;;3.22;;